52.4°F
Current conditions from King Hill
Updated every 5 minutes
 
  Thursday October 2, 2014

Station Historical Data
Daily Summary for May 25, 2010 Units:  Metric    English   Both
« Previous Day
Next Day »
Daily Weekly Monthly Yearly Custom
  High: Low: Average:
Temperature: 30.6 °C 16.5 °C 23.4 °C
Dew Point: 20.3 °C 13.7 °C 16.7 °C
Humidity: 88% 44% 68%
Wind Speed: 8km/h 0km/h 3.2km/h
Wind Gust: 17.7km/h - -
Wind- - WSW
Pressure: 1021.9 hPa 1013.4 hPa -
Precipitation: 0 mm    
Historical Graphs
 
 
Tabular Data for May 25, 2010
Time Temperature Dew Point Pressure Wind Wind Speed Wind Gust Humidity Daily Rainfall
00:01 17.2 °C 14.7 °C 1020.5 hPa Calm     85% 0 mm
00:06 17.3 °C 14.9 °C 1020.5 hPa Calm   1.6 km/h 86% 0 mm
00:11 17.3 °C 14.9 °C 1020.5 hPa Calm   1.6 km/h 86% 0 mm
00:16 17.3 °C 14.9 °C 1020.5 hPa Calm     86% 0 mm
00:21 17.2 °C 15.1 °C 1020.2 hPa Calm     87% 0 mm
00:26 17.1 °C 14.9 °C 1020.2 hPa Calm   1.6 km/h 87% 0 mm
00:31 17.1 °C 15.1 °C 1020.2 hPa Calm   1.6 km/h 88% 0 mm
00:36 17.2 °C 15.1 °C 1020.2 hPa Calm     87% 0 mm
00:41 17.2 °C 15 °C 1020.2 hPa Calm     87% 0 mm
00:46 17.2 °C 15 °C 1020.2 hPa Calm     87% 0 mm
00:51 17.1 °C 14.9 °C 1020.2 hPa Calm     87% 0 mm
00:56 17 °C 14.8 °C 1020.2 hPa Calm     87% 0 mm
01:01 17 °C 14.8 °C 1020.5 hPa Calm     87% 0 mm
01:06 17 °C 14.7 °C 1020.5 hPa Calm     86% 0 mm
01:11 17.1 °C 14.5 °C 1020.2 hPa Calm     85% 0 mm
01:16 17.1 °C 14.3 °C 1020.2 hPa Calm     84% 0 mm
01:21 17.1 °C 14.2 °C 1020.2 hPa Calm     83% 0 mm
01:26 17 °C 14.1 °C 1020.2 hPa Calm     83% 0 mm
01:31 16.9 °C 14.1 °C 1020.2 hPa Calm     83% 0 mm
01:36 16.8 °C 13.9 °C 1020.2 hPa Calm   1.6 km/h 83% 0 mm
01:41 16.7 °C 13.9 °C 1020.2 hPa Calm   1.6 km/h 84% 0 mm
01:46 16.6 °C 13.8 °C 1020.2 hPa Calm   1.6 km/h 84% 0 mm
01:51 16.6 °C 13.8 °C 1020.2 hPa Calm   1.6 km/h 84% 0 mm
01:56 16.7 °C 13.9 °C 1020.2 hPa Calm   1.6 km/h 84% 0 mm
02:01 16.7 °C 13.8 °C 1020.2 hPa Calm   1.6 km/h 83% 0 mm
02:06 16.8 °C 13.7 °C 1020.2 hPa Calm   1.6 km/h 82% 0 mm
02:11 17.3 °C 13.8 °C 1020.2 hPa SSW 3.2 km/h 11.3 km/h 80% 0 mm
02:16 17.9 °C 14.1 °C 1020.2 hPa SSW 1.6 km/h 11.3 km/h 78% 0 mm
02:21 18.2 °C 14.1 °C 1020.5 hPa SSW 1.6 km/h 9.7 km/h 77% 0 mm
02:26 18.5 °C 14.2 °C 1020.2 hPa SSW 3.2 km/h 9.7 km/h 76% 0 mm
02:31 18.7 °C 14.2 °C 1020.2 hPa SSW 3.2 km/h 9.7 km/h 75% 0 mm
02:36 18.7 °C 14.2 °C 1020.2 hPa SSW 4.8 km/h 9.7 km/h 75% 0 mm
02:41 18.7 °C 14.3 °C 1020.2 hPa SSW 4.8 km/h 9.7 km/h 76% 0 mm
02:46 18.6 °C 14.2 °C 1020.5 hPa SSW 3.2 km/h 9.7 km/h 76% 0 mm
02:51 18.4 °C 14.3 °C 1020.5 hPa SSW 6.4 km/h 9.7 km/h 77% 0 mm
02:56 18.4 °C 14.6 °C 1020.5 hPa SSW 4.8 km/h 8 km/h 78% 0 mm
03:01 18.3 °C 14.4 °C 1020.9 hPa SSW 3.2 km/h 8 km/h 78% 0 mm
03:06 18.2 °C 14.4 °C 1020.9 hPa SSW 4.8 km/h 8 km/h 79% 0 mm
03:11 18.1 °C 14.4 °C 1020.9 hPa SSW 4.8 km/h 8 km/h 79% 0 mm
03:16 18 °C 14.5 °C 1020.9 hPa SSW 3.2 km/h 8 km/h 80% 0 mm
03:21 17.9 °C 14.4 °C 1021.2 hPa SSW 1.6 km/h 8 km/h 80% 0 mm
03:26 17.8 °C 14.3 °C 1021.2 hPa SSW 1.6 km/h 6.4 km/h 80% 0 mm
03:31 17.7 °C 14 °C 1021.2 hPa SSW 1.6 km/h 8 km/h 79% 0 mm
03:37 17.7 °C 14.1 °C 1021.2 hPa SSW 4.8 km/h 8 km/h 79% 0 mm
03:42 17.8 °C 14.2 °C 1021.6 hPa SSW 3.2 km/h 8 km/h 79% 0 mm
03:46 17.8 °C 14.2 °C 1021.6 hPa Calm   8 km/h 79% 0 mm
03:57 17.4 °C 13.9 °C 1021.9 hPa Calm   1.6 km/h 80% 0 mm
04:01 17.1 °C 13.8 °C 1021.9 hPa SSW 1.6 km/h 4.8 km/h 81% 0 mm
04:07 16.8 °C 13.7 °C 1021.9 hPa SSW 1.6 km/h 4.8 km/h 82% 0 mm
04:12 16.6 °C 13.7 °C 1021.6 hPa SSW 1.6 km/h 4.8 km/h 83% 0 mm
04:17 16.5 °C 13.8 °C 1021.6 hPa SSW 3.2 km/h 6.4 km/h 84% 0 mm
04:21 16.7 °C 13.9 °C 1021.6 hPa Calm   6.4 km/h 84% 0 mm
04:26 16.7 °C 14 °C 1021.6 hPa SSW 1.6 km/h 6.4 km/h 84% 0 mm
04:32 16.8 °C 14.1 °C 1021.6 hPa SSW 3.2 km/h 6.4 km/h 84% 0 mm
04:37 17 °C 14.4 °C 1021.6 hPa SSW 3.2 km/h 9.7 km/h 85% 0 mm
04:42 17.4 °C 14.8 °C 1021.6 hPa SSW 6.4 km/h 11.3 km/h 85% 0 mm
04:46 17.8 °C 14.9 °C 1021.6 hPa SSW 4.8 km/h 11.3 km/h 83% 0 mm
04:52 17.9 °C 14.8 °C 1021.2 hPa SSW 6.4 km/h 12.9 km/h 82% 0 mm
04:57 18 °C 14.9 °C 1021.2 hPa SSW 8 km/h 12.9 km/h 82% 0 mm
05:02 18.1 °C 14.9 °C 1021.2 hPa SSW 4.8 km/h 12.9 km/h 82% 0 mm
05:07 18.1 °C 14.9 °C 1021.2 hPa SSW 4.8 km/h 11.3 km/h 82% 0 mm
05:11 18 °C 14.9 °C 1021.2 hPa SSW 4.8 km/h 11.3 km/h 82% 0 mm
05:17 17.8 °C 14.7 °C 1020.9 hPa SSW 6.4 km/h 11.3 km/h 82% 0 mm
05:22 17.8 °C 14.7 °C 1020.9 hPa SSW 3.2 km/h 11.3 km/h 82% 0 mm
05:27 17.8 °C 14.8 °C 1020.9 hPa SSW 3.2 km/h 9.7 km/h 83% 0 mm
05:31 17.8 °C 14.8 °C 1021.2 hPa SSW 4.8 km/h 9.7 km/h 83% 0 mm
05:36 17.8 °C 14.8 °C 1021.6 hPa Calm   9.7 km/h 83% 0 mm
05:42 17.8 °C 14.7 °C 1021.6 hPa SSW 1.6 km/h 6.4 km/h 82% 0 mm
05:47 17.7 °C 14.8 °C 1021.6 hPa SSW 3.2 km/h 6.4 km/h 83% 0 mm
05:52 17.7 °C 14.7 °C 1021.6 hPa Calm   6.4 km/h 83% 0 mm
05:56 17.6 °C 14.7 °C 1021.9 hPa Calm   1.6 km/h 83% 0 mm
06:01 17.5 °C 14.8 °C 1021.9 hPa Calm   1.6 km/h 84% 0 mm
06:07 17.3 °C 14.6 °C 1021.6 hPa Calm   3.2 km/h 84% 0 mm
06:12 17.2 °C 14.8 °C 1021.6 hPa SSW 4.8 km/h 9.7 km/h 86% 0 mm
06:17 17.6 °C 15 °C 1021.6 hPa SW 4.8 km/h 11.3 km/h 85% 0 mm
06:21 17.8 °C 15.1 °C 1021.6 hPa SSW 3.2 km/h 11.3 km/h 84% 0 mm
06:26 18.1 °C 15.1 °C 1021.9 hPa SW 6.4 km/h 8 km/h 83% 0 mm
06:32 18.2 °C 15.3 °C 1021.6 hPa WSW 1.6 km/h 8 km/h 83% 0 mm
06:37 18.3 °C 15.4 °C 1021.6 hPa SW 3.2 km/h 8 km/h 83% 0 mm
06:41 18.4 °C 15.5 °C 1021.6 hPa SW 3.2 km/h 9.7 km/h 83% 0 mm
06:46 18.7 °C 15.6 °C 1021.6 hPa SW 4.8 km/h 9.7 km/h 82% 0 mm
06:52 18.8 °C 15.7 °C 1021.2 hPa SSW 6.4 km/h 12.9 km/h 82% 0 mm
06:57 18.8 °C 15.5 °C 1021.2 hPa SW 1.6 km/h 12.9 km/h 81% 0 mm
07:01 18.9 °C 15.6 °C 1021.2 hPa SSW 4.8 km/h 12.9 km/h 81% 0 mm
07:06 19.1 °C 15.6 °C 1021.2 hPa SSW 8 km/h 12.9 km/h 80% 0 mm
07:12 19.2 °C 15.7 °C 1020.9 hPa SW 4.8 km/h 12.9 km/h 80% 0 mm
07:17 19.4 °C 15.8 °C 1021.2 hPa SSW 3.2 km/h 9.7 km/h 80% 0 mm
07:22 19.5 °C 15.8 °C 1021.2 hPa SSW 1.6 km/h 11.3 km/h 79% 0 mm
07:26 19.7 °C 16.1 °C 1021.2 hPa WSW 1.6 km/h 11.3 km/h 80% 0 mm
07:32 19.8 °C 16.1 °C 1021.2 hPa SW 3.2 km/h 11.3 km/h 79% 0 mm
07:37 19.9 °C 16.4 °C 1021.2 hPa Calm   11.3 km/h 80% 0 mm
07:42 20.1 °C 16.3 °C 1021.2 hPa SW 1.6 km/h 9.7 km/h 79% 0 mm
07:46 20.2 °C 16.3 °C 1021.2 hPa SW 3.2 km/h 11.3 km/h 78% 0 mm
07:52 20.4 °C 16.7 °C 1021.2 hPa Calm   11.3 km/h 79% 0 mm
07:57 20.7 °C 16.8 °C 1021.6 hPa WSW 1.6 km/h 11.3 km/h 78% 0 mm
08:02 20.9 °C 16.8 °C 1021.6 hPa Calm   6.4 km/h 77% 0 mm
08:07 21.3 °C 17.2 °C 1021.6 hPa Calm   4.8 km/h 77% 0 mm
08:11 21.7 °C 17.1 °C 1021.6 hPa Calm   1.6 km/h 75% 0 mm
08:17 22.1 °C 17.6 °C 1021.6 hPa Calm   1.6 km/h 76% 0 mm
08:22 22.2 °C 17.4 °C 1021.9 hPa Calm   1.6 km/h 74% 0 mm
08:27 22.4 °C 17.6 °C 1021.6 hPa Calm   1.6 km/h 74% 0 mm
08:31 22.7 °C 17.6 °C 1021.6 hPa Calm   1.6 km/h 73% 0 mm
08:37 22.8 °C 17.9 °C 1021.6 hPa Calm   3.2 km/h 74% 0 mm
08:47 23.2 °C 17.6 °C 1021.6 hPa Calm   4.8 km/h 71% 0 mm
08:52 23.4 °C 17.6 °C 1021.6 hPa SSW 1.6 km/h 6.4 km/h 70% 0 mm
08:56 23.4 °C 18.1 °C 1021.6 hPa Calm   6.4 km/h 72% 0 mm
09:01 23.6 °C 17.6 °C 1021.6 hPa Calm   4.8 km/h 69% 0 mm
09:07 23.6 °C 17.6 °C 1021.6 hPa Calm   4.8 km/h 69% 0 mm
09:12 23.8 °C 18.2 °C 1021.6 hPa Calm   4.8 km/h 71% 0 mm
09:17 23.8 °C 17.3 °C 1021.6 hPa Calm   4.8 km/h 67% 0 mm
09:21 24.1 °C 17.6 °C 1021.6 hPa Calm   4.8 km/h 67% 0 mm
09:27 24.2 °C 18.2 °C 1021.6 hPa Calm   3.2 km/h 69% 0 mm
09:32 24.5 °C 17.7 °C 1021.6 hPa NW 1.6 km/h 4.8 km/h 66% 0 mm
09:37 24.6 °C 18.1 °C 1021.6 hPa Calm   4.8 km/h 67% 0 mm
09:41 24.8 °C 16.8 °C 1021.6 hPa NW 3.2 km/h 14.5 km/h 61% 0 mm
09:47 24.7 °C 16.7 °C 1021.6 hPa WNW 3.2 km/h 14.5 km/h 61% 0 mm
09:52 24.7 °C 16.9 °C 1021.6 hPa Calm   9.7 km/h 62% 0 mm
09:57 24.8 °C 16.3 °C 1021.6 hPa WNW 3.2 km/h 9.7 km/h 59% 0 mm
10:01 24.9 °C 16.9 °C 1021.2 hPa Calm   9.7 km/h 61% 0 mm
10:06 25.1 °C 16.3 °C 1021.2 hPa NW 3.2 km/h 9.7 km/h 58% 0 mm
10:12 25.1 °C 15.2 °C 1021.2 hPa West 1.6 km/h 9.7 km/h 54% 0 mm
10:17 25.3 °C 16.2 °C 1021.2 hPa Calm   8 km/h 57% 0 mm
10:22 25.7 °C 17.4 °C 1021.2 hPa Calm   1.6 km/h 60% 0 mm
10:26 26 °C 16 °C 1021.2 hPa Calm   1.6 km/h 54% 0 mm
10:32 26.2 °C 16.4 °C 1020.9 hPa Calm   3.2 km/h 55% 0 mm
10:37 26.2 °C 16.2 °C 1020.9 hPa Calm   3.2 km/h 54% 0 mm
10:42 26.3 °C 16.8 °C 1021.2 hPa West 1.6 km/h 11.3 km/h 56% 0 mm
10:46 26.2 °C 16.7 °C 1020.9 hPa Calm   11.3 km/h 56% 0 mm
10:52 26.3 °C 17.4 °C 1020.9 hPa West 3.2 km/h 6.4 km/h 58% 0 mm
10:57 26.4 °C 16.9 °C 1020.5 hPa West 1.6 km/h 6.4 km/h 56% 0 mm
11:01 26.5 °C 16.4 °C 1020.5 hPa WNW 4.8 km/h 8 km/h 54% 0 mm
11:07 26.5 °C 15.2 °C 1020.5 hPa WNW 3.2 km/h 8 km/h 50% 0 mm
11:12 26.4 °C 16.4 °C 1020.5 hPa NW 1.6 km/h 8 km/h 54% 0 mm
11:17 26.8 °C 17.3 °C 1020.2 hPa Calm   8 km/h 56% 0 mm
11:21 27.1 °C 17.9 °C 1020.5 hPa Calm   9.7 km/h 57% 0 mm
11:27 27.3 °C 16.9 °C 1020.2 hPa WNW 3.2 km/h 11.3 km/h 53% 0 mm
11:32 27 °C 16.6 °C 1020.2 hPa WNW 1.6 km/h 11.3 km/h 53% 0 mm
11:37 26.9 °C 17.2 °C 1020.2 hPa WNW 3.2 km/h 11.3 km/h 55% 0 mm
11:41 27.1 °C 17.3 °C 1020.2 hPa Calm   11.3 km/h 55% 0 mm
11:46 27.1 °C 17.3 °C 1020.2 hPa Calm   4.8 km/h 55% 0 mm
11:52 27.2 °C 18.3 °C 1019.9 hPa WNW 1.6 km/h 9.7 km/h 58% 0 mm
11:56 27.4 °C 17.8 °C 1019.9 hPa Calm   9.7 km/h 56% 0 mm
12:01 27.5 °C 18.8 °C 1019.9 hPa West 1.6 km/h 8 km/h 59% 0 mm
12:07 27.4 °C 17.3 °C 1019.9 hPa Calm   8 km/h 54% 0 mm
12:12 27.5 °C 17.7 °C 1019.9 hPa NNW 3.2 km/h 9.7 km/h 55% 0 mm
12:17 27.4 °C 17.6 °C 1019.9 hPa West 3.2 km/h 11.3 km/h 55% 0 mm
12:21 27.4 °C 17.1 °C 1019.5 hPa Calm   11.3 km/h 53% 0 mm
12:27 27.7 °C 18.7 °C 1019.5 hPa West 6.4 km/h 11.3 km/h 58% 0 mm
12:32 27.7 °C 17.6 °C 1019.2 hPa WNW 1.6 km/h 11.3 km/h 54% 0 mm
12:37 27.7 °C 16.6 °C 1019.2 hPa Calm   11.3 km/h 51% 0 mm
12:41 27.9 °C 17.4 °C 1019.2 hPa SW 3.2 km/h 9.7 km/h 53% 0 mm
12:47 27.9 °C 18.1 °C 1019.2 hPa WNW 8 km/h 12.9 km/h 55% 0 mm
12:52 27.9 °C 17.5 °C 1018.8 hPa NW 4.8 km/h 12.9 km/h 53% 0 mm
12:57 28.1 °C 17.3 °C 1018.8 hPa WNW 3.2 km/h 12.9 km/h 52% 0 mm
13:01 28.1 °C 17.9 °C 1018.8 hPa NW 3.2 km/h 12.9 km/h 54% 0 mm
13:07 28.2 °C 17.2 °C 1018.8 hPa WNW 8 km/h 16.1 km/h 51% 0 mm
13:12 28.2 °C 18.6 °C 1018.8 hPa WNW 3.2 km/h 16.1 km/h 56% 0 mm
13:17 28.3 °C 17.2 °C 1018.5 hPa WNW 4.8 km/h 12.9 km/h 51% 0 mm
13:21 28.3 °C 16.6 °C 1018.5 hPa WNW 1.6 km/h 12.9 km/h 49% 0 mm
13:27 28.7 °C 17.8 °C 1018.5 hPa Calm   11.3 km/h 52% 0 mm
13:32 28.8 °C 16.7 °C 1018.5 hPa WNW 8 km/h 16.1 km/h 48% 0 mm
13:37 28.7 °C 16.9 °C 1018.5 hPa West 4.8 km/h 16.1 km/h 49% 0 mm
13:41 28.8 °C 17.9 °C 1018.5 hPa Calm   16.1 km/h 52% 0 mm
13:46 29.1 °C 18.8 °C 1018.5 hPa West 6.4 km/h 11.3 km/h 54% 0 mm
13:52 29.1 °C 17 °C 1018.5 hPa NW 6.4 km/h 12.9 km/h 48% 0 mm
13:57 28.8 °C 18.3 °C 1018.5 hPa WNW 6.4 km/h 17.7 km/h 53% 0 mm
14:02 28.9 °C 18.1 °C 1018.5 hPa WNW 3.2 km/h 17.7 km/h 52% 0 mm
14:07 29 °C 18.2 °C 1018.2 hPa West 3.2 km/h 14.5 km/h 52% 0 mm
14:11 29.1 °C 16.7 °C 1018.2 hPa Calm   12.9 km/h 47% 0 mm
14:17 29.4 °C 16.9 °C 1018.2 hPa NW 4.8 km/h 16.1 km/h 47% 0 mm
14:22 29.5 °C 17 °C 1017.8 hPa NW 1.6 km/h 16.1 km/h 47% 0 mm
14:27 29.6 °C 18.7 °C 1017.8 hPa WNW 1.6 km/h 12.9 km/h 52% 0 mm
14:32 29.7 °C 18.5 °C 1017.8 hPa WNW 3.2 km/h 16.1 km/h 51% 0 mm
14:37 29.8 °C 17 °C 1017.5 hPa NW 3.2 km/h 16.1 km/h 46% 0 mm
14:42 29.9 °C 17.8 °C 1017.5 hPa NNW 1.6 km/h 12.9 km/h 48% 0 mm
14:46 30.2 °C 16.6 °C 1017.8 hPa NW 6.4 km/h 14.5 km/h 44% 0 mm
14:52 30.1 °C 17.5 °C 1017.5 hPa Calm   14.5 km/h 47% 0 mm
14:57 30.2 °C 17.7 °C 1017.5 hPa WSW 1.6 km/h 12.9 km/h 47% 0 mm
15:01 30.3 °C 19.3 °C 1017.5 hPa NW 6.4 km/h 12.9 km/h 52% 0 mm
15:07 30 °C 17.1 °C 1017.2 hPa WNW 1.6 km/h 12.9 km/h 46% 0 mm
15:12 30.1 °C 17.8 °C 1017.2 hPa NW 1.6 km/h 14.5 km/h 48% 0 mm
15:17 30.3 °C 17.8 °C 1017.2 hPa NW 1.6 km/h 14.5 km/h 47% 0 mm
15:21 30.4 °C 18.2 °C 1017.2 hPa NW 1.6 km/h 9.7 km/h 48% 0 mm
15:27 30.3 °C 17.1 °C 1017.2 hPa West 3.2 km/h 14.5 km/h 45% 0 mm
15:32 30.3 °C 18.7 °C 1016.8 hPa NW 1.6 km/h 14.5 km/h 50% 0 mm
15:37 30.4 °C 18.9 °C 1016.8 hPa NNW 3.2 km/h 11.3 km/h 50% 0 mm
15:41 30.5 °C 18.9 °C 1016.8 hPa NW 3.2 km/h 12.9 km/h 50% 0 mm
15:47 30.6 °C 17.7 °C 1016.8 hPa Calm   12.9 km/h 46% 0 mm
15:52 30.4 °C 18.6 °C 1016.8 hPa NW 1.6 km/h 8 km/h 49% 0 mm
15:57 30.6 °C 19.3 °C 1016.8 hPa NW 3.2 km/h 16.1 km/h 51% 0 mm
16:01 30.6 °C 17.7 °C 1016.5 hPa WSW 1.6 km/h 16.1 km/h 46% 0 mm
16:07 30.6 °C 19.3 °C 1016.8 hPa North 1.6 km/h 12.9 km/h 51% 0 mm
16:12 30.6 °C 18.9 °C 1016.5 hPa NE 1.6 km/h 12.9 km/h 50% 0 mm
16:17 30.6 °C 19.3 °C 1016.5 hPa NNW 4.8 km/h 14.5 km/h 51% 0 mm
16:21 30.6 °C 19.3 °C 1016.5 hPa NNW 1.6 km/h 14.5 km/h 51% 0 mm
16:27 30.6 °C 19.3 °C 1016.5 hPa NW 1.6 km/h 12.9 km/h 51% 0 mm
16:32 30.6 °C 18.3 °C 1016.5 hPa NNE 1.6 km/h 17.7 km/h 48% 0 mm
16:41 30.4 °C 18.2 °C 1016.1 hPa NE 4.8 km/h 12.9 km/h 48% 0 mm
16:47 30.2 °C 18.3 °C 1016.5 hPa NNE 1.6 km/h 11.3 km/h 49% 0 mm
16:52 30.3 °C 19.1 °C 1016.5 hPa Calm   9.7 km/h 51% 0 mm
16:57 30.4 °C 18.5 °C 1016.5 hPa North 1.6 km/h 9.7 km/h 49% 0 mm
17:01 30.4 °C 18.8 °C 1016.5 hPa NNW 1.6 km/h 8 km/h 50% 0 mm
17:07 30.3 °C 18.4 °C 1016.1 hPa NW 4.8 km/h 16.1 km/h 49% 0 mm
17:12 30.3 °C 18.4 °C 1016.1 hPa NNE 1.6 km/h 16.1 km/h 49% 0 mm
17:17 30.3 °C 18.8 °C 1016.1 hPa NNW 1.6 km/h 9.7 km/h 50% 0 mm
17:21 30.3 °C 19.7 °C 1016.1 hPa North 1.6 km/h 9.7 km/h 53% 0 mm
17:27 30.4 °C 20.1 °C 1016.1 hPa NW 1.6 km/h 9.7 km/h 54% 0 mm
17:32 30.4 °C 18.8 °C 1016.1 hPa Calm   9.7 km/h 50% 0 mm
17:37 30.3 °C 19.4 °C 1016.1 hPa Calm   9.7 km/h 52% 0 mm
17:41 30.3 °C 18.8 °C 1016.1 hPa North 1.6 km/h 8 km/h 50% 0 mm
17:47 30.3 °C 20 °C 1016.1 hPa Calm   8 km/h 54% 0 mm
17:52 30.3 °C 19.1 °C 1015.8 hPa NNW 1.6 km/h 6.4 km/h 51% 0 mm
17:57 30.1 °C 18.8 °C 1015.5 hPa NNW 1.6 km/h 8 km/h 51% 0 mm
18:02 29.9 °C 19.6 °C 1015.5 hPa Calm   8 km/h 54% 0 mm
18:06 29.8 °C 19.2 °C 1015.5 hPa Calm   4.8 km/h 53% 0 mm
18:12 29.8 °C 18.9 °C 1015.5 hPa Calm   9.7 km/h 52% 0 mm
18:17 29.6 °C 18.7 °C 1015.1 hPa Calm   9.7 km/h 52% 0 mm
18:22 29.5 °C 18.6 °C 1015.1 hPa Calm   8 km/h 52% 0 mm
18:27 29.5 °C 18.3 °C 1015.1 hPa Calm   6.4 km/h 51% 0 mm
18:31 29.6 °C 19.3 °C 1015.1 hPa Calm   6.4 km/h 54% 0 mm
18:37 29.7 °C 18.5 °C 1015.1 hPa Calm   1.6 km/h 51% 0 mm
18:42 29.7 °C 19.1 °C 1015.1 hPa Calm   1.6 km/h 53% 0 mm
18:47 29.5 °C 19.2 °C 1015.1 hPa Calm   4.8 km/h 54% 0 mm
18:51 29.1 °C 18.9 °C 1015.1 hPa NW 1.6 km/h 6.4 km/h 54% 0 mm
18:57 28.8 °C 18.3 °C 1015.1 hPa Calm   6.4 km/h 53% 0 mm
19:02 28.7 °C 18.5 °C 1015.1 hPa Calm   1.6 km/h 54% 0 mm
19:07 28.6 °C 19 °C 1015.1 hPa Calm   1.6 km/h 56% 0 mm
19:12 28.6 °C 19.6 °C 1015.1 hPa Calm   1.6 km/h 58% 0 mm
19:16 28.6 °C 20.3 °C 1015.1 hPa Calm   1.6 km/h 61% 0 mm
19:22 28.3 °C 19.8 °C 1015.1 hPa Calm   1.6 km/h 60% 0 mm
19:27 28 °C 19.5 °C 1015.1 hPa Calm   1.6 km/h 60% 0 mm
19:32 27.5 °C 19.8 °C 1014.8 hPa Calm   1.6 km/h 63% 0 mm
19:36 27.1 °C 19.2 °C 1014.8 hPa Calm   1.6 km/h 62% 0 mm
19:42 26.7 °C 19.1 °C 1014.8 hPa Calm   1.6 km/h 63% 0 mm
19:47 26.1 °C 19.5 °C 1014.8 hPa Calm   1.6 km/h 67% 0 mm
19:52 25.4 °C 18.4 °C 1014.8 hPa Calm   1.6 km/h 65% 0 mm
19:57 25.1 °C 19 °C 1014.8 hPa Calm     69% 0 mm
20:01 24.6 °C 18.5 °C 1014.8 hPa Calm     69% 0 mm
20:07 24.2 °C 18.6 °C 1014.8 hPa Calm     71% 0 mm
20:12 23.6 °C 18.1 °C 1014.8 hPa Calm     71% 0 mm
20:17 23.2 °C 17.8 °C 1014.8 hPa Calm     72% 0 mm
20:21 23 °C 17.4 °C 1014.8 hPa Calm     71% 0 mm
20:27 22.8 °C 17.3 °C 1014.8 hPa Calm     71% 0 mm
20:32 22.7 °C 17.2 °C 1014.8 hPa Calm     71% 0 mm
20:37 22.4 °C 17.2 °C 1014.8 hPa Calm     72% 0 mm
20:41 22.2 °C 17.2 °C 1014.8 hPa Calm     73% 0 mm
20:47 21.9 °C 17.1 °C 1014.8 hPa Calm     74% 0 mm
20:52 21.7 °C 17.1 °C 1014.8 hPa Calm     75% 0 mm
20:57 21.4 °C 17.1 °C 1015.1 hPa Calm     76% 0 mm
21:01 21.2 °C 17.1 °C 1015.1 hPa Calm     77% 0 mm
21:07 20.9 °C 16.9 °C 1015.1 hPa Calm     78% 0 mm
21:12 20.8 °C 17 °C 1015.1 hPa Calm     79% 0 mm
21:17 20.6 °C 17 °C 1014.8 hPa Calm     80% 0 mm
21:21 20.3 °C 16.9 °C 1014.8 hPa Calm     81% 0 mm
21:27 20.2 °C 16.8 °C 1014.8 hPa Calm     81% 0 mm
21:32 20.1 °C 16.8 °C 1015.1 hPa Calm     81% 0 mm
21:37 20 °C 16.7 °C 1015.1 hPa Calm     81% 0 mm
21:41 20 °C 16.7 °C 1015.1 hPa Calm     81% 0 mm
21:47 20.3 °C 16.5 °C 1015.1 hPa Calm     79% 0 mm
21:52 20.4 °C 16.7 °C 1014.8 hPa Calm     79% 0 mm
21:57 20.6 °C 16.6 °C 1014.8 hPa Calm     78% 0 mm
22:02 20.8 °C 16.6 °C 1014.8 hPa Calm   1.6 km/h 77% 0 mm
22:07 20.9 °C 16.6 °C 1014.8 hPa Calm   1.6 km/h 76% 0 mm
22:12 21.2 °C 16.8 °C 1014.8 hPa Calm   1.6 km/h 76% 0 mm
22:16 21.4 °C 16.6 °C 1014.4 hPa Calm   1.6 km/h 74% 0 mm
22:22 21.4 °C 16.6 °C 1014.4 hPa Calm   4.8 km/h 74% 0 mm
22:27 21.5 °C 16.7 °C 1014.4 hPa Calm   4.8 km/h 74% 0 mm
22:32 21.5 °C 16.7 °C 1014.4 hPa Calm   4.8 km/h 74% 0 mm
22:36 21.4 °C 16.8 °C 1014.4 hPa WSW 1.6 km/h 4.8 km/h 75% 0 mm
22:42 21.5 °C 16.4 °C 1014.1 hPa SW 1.6 km/h 4.8 km/h 73% 0 mm
22:47 21.7 °C 16.8 °C 1014.1 hPa Calm   6.4 km/h 74% 0 mm
22:52 21.7 °C 16.7 °C 1014.1 hPa Calm   6.4 km/h 73% 0 mm
22:56 21.7 °C 16.6 °C 1013.8 hPa Calm   1.6 km/h 73% 0 mm
23:01 21.7 °C 16.6 °C 1013.8 hPa WSW 1.6 km/h 6.4 km/h 73% 0 mm
23:07 21.8 °C 16.3 °C 1013.8 hPa SW 1.6 km/h 8 km/h 71% 0 mm
23:12 22.1 °C 16.6 °C 1013.8 hPa WSW 1.6 km/h 11.3 km/h 71% 0 mm
23:17 22.3 °C 16.8 °C 1013.8 hPa WSW 1.6 km/h 11.3 km/h 71% 0 mm
23:21 22.4 °C 16.9 °C 1013.4 hPa WSW 1.6 km/h 9.7 km/h 71% 0 mm
23:27 22.6 °C 16.8 °C 1013.4 hPa WSW 1.6 km/h 9.7 km/h 70% 0 mm
23:32 22.7 °C 17 °C 1013.4 hPa Calm   6.4 km/h 70% 0 mm
23:37 22.8 °C 17 °C 1013.4 hPa WSW 3.2 km/h 8 km/h 70% 0 mm
23:42 22.9 °C 17.2 °C 1013.4 hPa WSW 1.6 km/h 8 km/h 70% 0 mm
23:47 23.1 °C 17.3 °C 1013.4 hPa West 4.8 km/h 14.5 km/h 70% 0 mm
23:52 23.2 °C 17.4 °C 1013.4 hPa Calm   14.5 km/h 70% 0 mm
23:57 23.1 °C 17.3 °C 1013.4 hPa Calm   8 km/h 70% 0 mm
Westford Weather
Compliments of Weather Underground

 
 
Current Radar Loop:

Copyright © WestfordWeather.net 2007-2014. All rights reserved.